sensor_id;sensor_type;location;lat;lon;timestamp;temperature;humidity
1123;DHT22;548;48.778;9.252;2023-04-03T04:39:56;5.10;99.90
1123;DHT22;548;48.778;9.252;2023-04-03T04:42:22;5.10;99.90
1123;DHT22;548;48.778;9.252;2023-04-03T04:44:49;5.10;99.90
1123;DHT22;548;48.778;9.252;2023-04-03T04:47:16;5.00;99.90
1123;DHT22;548;48.778;9.252;2023-04-03T04:49:42;5.10;99.90
1123;DHT22;548;48.778;9.252;2023-04-03T04:52:09;5.10;99.90
1123;DHT22;548;48.778;9.252;2023-04-03T04:54:36;5.10;99.90
1123;DHT22;548;48.778;9.252;2023-04-03T04:57:04;5.10;99.90
1123;DHT22;548;48.778;9.252;2023-04-03T04:59:30;5.10;99.90
1123;DHT22;548;48.778;9.252;2023-04-03T05:01:57;5.20;99.90
1123;DHT22;548;48.778;9.252;2023-04-03T05:04:24;5.20;99.90
1123;DHT22;548;48.778;9.252;2023-04-03T05:06:50;5.30;99.90
1123;DHT22;548;48.778;9.252;2023-04-03T05:09:17;5.20;99.90
1123;DHT22;548;48.778;9.252;2023-04-03T05:11:45;5.30;99.90
1123;DHT22;548;48.778;9.252;2023-04-03T05:14:13;5.20;99.90
1123;DHT22;548;48.778;9.252;2023-04-03T05:16:40;5.30;99.90
1123;DHT22;548;48.778;9.252;2023-04-03T05:19:06;5.30;99.90
1123;DHT22;548;48.778;9.252;2023-04-03T05:21:33;5.40;99.90
1123;DHT22;548;48.778;9.252;2023-04-03T05:24:00;5.40;99.90
1123;DHT22;548;48.778;9.252;2023-04-03T05:26:28;5.40;99.90
1123;DHT22;548;48.778;9.252;2023-04-03T05:28:55;5.40;99.90
1123;DHT22;548;48.778;9.252;2023-04-03T05:31:23;5.40;99.90
1123;DHT22;548;48.778;9.252;2023-04-03T05:33:50;5.30;99.90
1123;DHT22;548;48.778;9.252;2023-04-03T05:36:16;5.30;99.90
1123;DHT22;548;48.778;9.252;2023-04-03T05:38:43;5.40;99.90
1123;DHT22;548;48.778;9.252;2023-04-03T05:41:10;5.40;99.90
1123;DHT22;548;48.778;9.252;2023-04-03T05:43:36;5.50;99.90
1123;DHT22;548;48.778;9.252;2023-04-03T05:46:07;5.40;99.90
1123;DHT22;548;48.778;9.252;2023-04-03T05:48:35;5.40;99.90
1123;DHT22;548;48.778;9.252;2023-04-03T05:51:03;5.40;99.90
1123;DHT22;548;48.778;9.252;2023-04-03T05:53:31;5.60;99.90
1123;DHT22;548;48.778;9.252;2023-04-03T05:55:59;5.60;99.90
1123;DHT22;548;48.778;9.252;2023-04-03T05:58:26;5.60;99.90
1123;DHT22;548;48.778;9.252;2023-04-03T06:00:52;5.40;99.90
1123;DHT22;548;48.778;9.252;2023-04-03T06:03:19;5.50;99.90
1123;DHT22;548;48.778;9.252;2023-04-03T06:05:47;5.80;99.90
1123;DHT22;548;48.778;9.252;2023-04-03T06:08:14;6.00;99.90
1123;DHT22;548;48.778;9.252;2023-04-03T06:10:41;6.10;99.90
1123;DHT22;548;48.778;9.252;2023-04-03T06:13:08;6.10;99.90
1123;DHT22;548;48.778;9.252;2023-04-03T06:15:34;6.00;99.90
1123;DHT22;548;48.778;9.252;2023-04-03T06:18:01;6.10;99.90
1123;DHT22;548;48.778;9.252;2023-04-03T06:20:28;6.10;99.90
1123;DHT22;548;48.778;9.252;2023-04-03T06:22:56;6.00;99.90
1123;DHT22;548;48.778;9.252;2023-04-03T06:25:23;6.00;99.90
1123;DHT22;548;48.778;9.252;2023-04-03T06:27:49;6.00;99.90
1123;DHT22;548;48.778;9.252;2023-04-03T06:30:16;6.10;99.90
1123;DHT22;548;48.778;9.252;2023-04-03T06:32:43;6.00;99.90
1123;DHT22;548;48.778;9.252;2023-04-03T06:35:10;6.00;99.90
1123;DHT22;548;48.778;9.252;2023-04-03T06:37:37;6.10;99.90
1123;DHT22;548;48.778;9.252;2023-04-03T06:40:06;6.20;99.90
1123;DHT22;548;48.778;9.252;2023-04-03T06:42:33;6.30;99.90
1123;DHT22;548;48.778;9.252;2023-04-03T06:45:00;6.40;99.90
1123;DHT22;548;48.778;9.252;2023-04-03T06:47:27;6.50;99.90
1123;DHT22;548;48.778;9.252;2023-04-03T06:49:53;6.50;99.90
1123;DHT22;548;48.778;9.252;2023-04-03T06:52:20;6.50;99.90
1123;DHT22;548;48.778;9.252;2023-04-03T06:54:47;6.40;99.90
1123;DHT22;548;48.778;9.252;2023-04-03T15:51:13;8.10;75.00
1123;DHT22;548;48.778;9.252;2023-04-03T15:53:40;8.20;74.70
1123;DHT22;548;48.778;9.252;2023-04-03T15:56:07;8.30;73.90
1123;DHT22;548;48.778;9.252;2023-04-03T15:58:35;8.40;73.50
1123;DHT22;548;48.778;9.252;2023-04-03T16:01:02;8.40;73.30
1123;DHT22;548;48.778;9.252;2023-04-03T16:03:28;8.70;75.00
1123;DHT22;548;48.778;9.252;2023-04-03T16:05:56;8.80;72.90
1123;DHT22;548;48.778;9.252;2023-04-03T16:08:24;8.90;72.70
1123;DHT22;548;48.778;9.252;2023-04-03T16:10:50;8.60;68.80
1123;DHT22;548;48.778;9.252;2023-04-03T16:13:17;8.50;70.10
1123;DHT22;548;48.778;9.252;2023-04-03T16:15:44;8.30;69.70
1123;DHT22;548;48.778;9.252;2023-04-03T16:18:10;8.10;70.40
1123;DHT22;548;48.778;9.252;2023-04-03T16:20:39;8.00;69.80
1123;DHT22;548;48.778;9.252;2023-04-03T16:23:05;8.00;71.20
1123;DHT22;548;48.778;9.252;2023-04-03T16:25:33;8.00;71.10
1123;DHT22;548;48.778;9.252;2023-04-03T16:28:00;8.10;71.70
1123;DHT22;548;48.778;9.252;2023-04-03T16:30:27;8.10;71.90
1123;DHT22;548;48.778;9.252;2023-04-03T16:32:53;8.20;71.50
1123;DHT22;548;48.778;9.252;2023-04-03T16:35:21;8.30;70.70
1123;DHT22;548;48.778;9.252;2023-04-03T16:37:47;8.40;70.10
1123;DHT22;548;48.778;9.252;2023-04-03T16:40:14;8.40;70.80
1123;DHT22;548;48.778;9.252;2023-04-03T16:42:42;8.60;71.00
1123;DHT22;548;48.778;9.252;2023-04-03T16:45:09;8.50;71.70
1123;DHT22;548;48.778;9.252;2023-04-03T16:47:36;8.50;72.50
1123;DHT22;548;48.778;9.252;2023-04-03T16:50:04;8.50;71.80
1123;DHT22;548;48.778;9.252;2023-04-03T16:52:30;8.40;72.10
1123;DHT22;548;48.778;9.252;2023-04-03T16:54:57;8.40;73.30
1123;DHT22;548;48.778;9.252;2023-04-03T16:57:24;8.40;71.80
1123;DHT22;548;48.778;9.252;2023-04-03T16:59:54;8.40;71.90
1123;DHT22;548;48.778;9.252;2023-04-03T17:02:22;8.40;71.50
1123;DHT22;548;48.778;9.252;2023-04-03T17:04:50;8.30;72.50
1123;DHT22;548;48.778;9.252;2023-04-03T17:07:17;8.20;72.70
1123;DHT22;548;48.778;9.252;2023-04-03T17:09:43;8.10;73.40
1123;DHT22;548;48.778;9.252;2023-04-03T17:12:10;8.10;74.70
1123;DHT22;548;48.778;9.252;2023-04-03T17:14:37;8.00;73.50
1123;DHT22;548;48.778;9.252;2023-04-03T17:17:05;8.00;73.70
1123;DHT22;548;48.778;9.252;2023-04-03T17:19:33;7.90;73.80
1123;DHT22;548;48.778;9.252;2023-04-03T17:22:00;7.70;74.30
1123;DHT22;548;48.778;9.252;2023-04-03T17:24:27;7.80;74.40
1123;DHT22;548;48.778;9.252;2023-04-03T17:26:54;7.70;74.70
1123;DHT22;548;48.778;9.252;2023-04-03T17:29:20;7.70;75.40
1123;DHT22;548;48.778;9.252;2023-04-03T17:31:47;7.70;75.40
1123;DHT22;548;48.778;9.252;2023-04-03T17:34:15;7.60;75.00
1123;DHT22;548;48.778;9.252;2023-04-03T17:36:42;7.50;75.20
1123;DHT22;548;48.778;9.252;2023-04-03T17:39:09;7.40;76.30
1123;DHT22;548;48.778;9.252;2023-04-03T17:41:36;7.50;76.60
1123;DHT22;548;48.778;9.252;2023-04-03T17:44:03;7.50;75.80
1123;DHT22;548;48.778;9.252;2023-04-03T17:46:30;7.50;75.60
1123;DHT22;548;48.778;9.252;2023-04-03T17:48:57;7.50;75.70
1123;DHT22;548;48.778;9.252;2023-04-03T17:51:26;7.50;76.30
1123;DHT22;548;48.778;9.252;2023-04-03T17:53:53;7.40;75.90
1123;DHT22;548;48.778;9.252;2023-04-03T17:56:22;7.40;76.20
1123;DHT22;548;48.778;9.252;2023-04-03T17:58:49;7.30;76.00
1123;DHT22;548;48.778;9.252;2023-04-03T18:01:18;7.30;76.10
1123;DHT22;548;48.778;9.252;2023-04-03T18:03:46;7.20;77.10
1123;DHT22;548;48.778;9.252;2023-04-03T18:06:15;7.30;77.80
1123;DHT22;548;48.778;9.252;2023-04-03T18:08:46;7.20;78.30
1123;DHT22;548;48.778;9.252;2023-04-03T18:11:15;7.10;78.70
1123;DHT22;548;48.778;9.252;2023-04-03T18:13:43;7.10;78.60
1123;DHT22;548;48.778;9.252;2023-04-03T18:16:12;7.10;78.70
1123;DHT22;548;48.778;9.252;2023-04-03T18:18:39;7.00;78.60
1123;DHT22;548;48.778;9.252;2023-04-03T18:21:08;7.10;78.40
1123;DHT22;548;48.778;9.252;2023-04-03T18:23:38;7.00;78.00
1123;DHT22;548;48.778;9.252;2023-04-03T18:26:07;7.00;78.10
1123;DHT22;548;48.778;9.252;2023-04-03T18:28:35;7.00;78.10
1123;DHT22;548;48.778;9.252;2023-04-03T18:31:02;7.00;78.10
1123;DHT22;548;48.778;9.252;2023-04-03T18:33:29;7.10;77.50
1123;DHT22;548;48.778;9.252;2023-04-03T18:35:56;7.00;78.40
1123;DHT22;548;48.778;9.252;2023-04-03T18:38:22;6.90;78.10
1123;DHT22;548;48.778;9.252;2023-04-03T18:40:50;6.90;78.00
1123;DHT22;548;48.778;9.252;2023-04-03T18:43:19;6.70;79.00
1123;DHT22;548;48.778;9.252;2023-04-03T18:45:45;6.60;79.30
1123;DHT22;548;48.778;9.252;2023-04-03T18:48:12;6.50;80.00
1123;DHT22;548;48.778;9.252;2023-04-03T18:50:39;6.40;80.70
1123;DHT22;548;48.778;9.252;2023-04-03T18:53:06;6.40;81.50
1123;DHT22;548;48.778;9.252;2023-04-03T18:55:32;6.30;82.10
1123;DHT22;548;48.778;9.252;2023-04-03T18:58:00;6.20;82.10
1123;DHT22;548;48.778;9.252;2023-04-03T19:00:28;6.10;82.20
1123;DHT22;548;48.778;9.252;2023-04-03T19:02:55;6.10;83.30
1123;DHT22;548;48.778;9.252;2023-04-03T19:05:21;6.00;83.90
1123;DHT22;548;48.778;9.252;2023-04-03T19:07:48;6.00;84.80
1123;DHT22;548;48.778;9.252;2023-04-03T19:10:16;6.00;85.00
1123;DHT22;548;48.778;9.252;2023-04-03T19:12:45;6.00;85.30
1123;DHT22;548;48.778;9.252;2023-04-03T19:15:12;6.00;85.60
1123;DHT22;548;48.778;9.252;2023-04-03T19:17:40;6.10;86.00
1123;DHT22;548;48.778;9.252;2023-04-03T19:20:08;6.20;84.50
1123;DHT22;548;48.778;9.252;2023-04-03T19:22:35;6.20;84.00
1123;DHT22;548;48.778;9.252;2023-04-03T19:25:02;6.30;84.20
1123;DHT22;548;48.778;9.252;2023-04-03T19:27:29;6.20;83.10
1123;DHT22;548;48.778;9.252;2023-04-03T19:29:55;6.30;83.80
1123;DHT22;548;48.778;9.252;2023-04-03T19:32:22;6.30;83.70
1123;DHT22;548;48.778;9.252;2023-04-03T19:34:50;6.30;84.00
1123;DHT22;548;48.778;9.252;2023-04-03T19:37:17;6.30;84.30
1123;DHT22;548;48.778;9.252;2023-04-03T19:39:45;6.30;84.70
1123;DHT22;548;48.778;9.252;2023-04-03T19:42:12;6.30;83.60
1123;DHT22;548;48.778;9.252;2023-04-03T19:44:39;6.20;83.70
1123;DHT22;548;48.778;9.252;2023-04-03T19:47:05;6.10;83.80
1123;DHT22;548;48.778;9.252;2023-04-03T19:49:32;6.00;84.50
1123;DHT22;548;48.778;9.252;2023-04-03T19:52:00;5.90;83.40
1123;DHT22;548;48.778;9.252;2023-04-03T19:54:27;5.90;82.60
1123;DHT22;548;48.778;9.252;2023-04-03T19:56:54;5.80;82.50
1123;DHT22;548;48.778;9.252;2023-04-03T19:59:21;5.80;82.60
1123;DHT22;548;48.778;9.252;2023-04-03T20:01:47;5.80;82.30
1123;DHT22;548;48.778;9.252;2023-04-03T20:04:14;5.70;82.80
1123;DHT22;548;48.778;9.252;2023-04-03T20:06:41;5.50;83.20
1123;DHT22;548;48.778;9.252;2023-04-03T20:09:09;5.40;83.70
1123;DHT22;548;48.778;9.252;2023-04-03T20:11:36;5.40;83.50
1123;DHT22;548;48.778;9.252;2023-04-03T20:14:04;5.30;83.90
1123;DHT22;548;48.778;9.252;2023-04-03T20:16:31;5.30;84.00
1123;DHT22;548;48.778;9.252;2023-04-03T20:18:58;5.20;84.20
1123;DHT22;548;48.778;9.252;2023-04-03T20:21:27;5.10;84.70
1123;DHT22;548;48.778;9.252;2023-04-03T20:23:54;5.10;85.20
1123;DHT22;548;48.778;9.252;2023-04-03T20:26:23;5.00;85.70
1123;DHT22;548;48.778;9.252;2023-04-03T20:28:52;4.90;86.20
1123;DHT22;548;48.778;9.252;2023-04-03T20:31:19;4.90;86.10
1123;DHT22;548;48.778;9.252;2023-04-03T20:33:47;4.80;86.30
1123;DHT22;548;48.778;9.252;2023-04-03T20:36:14;4.80;86.20
1123;DHT22;548;48.778;9.252;2023-04-03T20:38:41;4.80;86.30
1123;DHT22;548;48.778;9.252;2023-04-03T20:41:07;4.70;86.10
1123;DHT22;548;48.778;9.252;2023-04-03T20:43:36;4.70;86.70
1123;DHT22;548;48.778;9.252;2023-04-03T20:46:04;4.70;86.60
1123;DHT22;548;48.778;9.252;2023-04-03T20:48:31;4.70;86.90
1123;DHT22;548;48.778;9.252;2023-04-03T20:50:58;4.60;87.40
1123;DHT22;548;48.778;9.252;2023-04-03T20:53:24;4.50;87.60
1123;DHT22;548;48.778;9.252;2023-04-03T20:55:54;4.50;87.80
1123;DHT22;548;48.778;9.252;2023-04-03T20:58:24;4.50;87.90
1123;DHT22;548;48.778;9.252;2023-04-03T21:00:54;4.50;87.70
1123;DHT22;548;48.778;9.252;2023-04-03T21:03:21;4.50;88.00
1123;DHT22;548;48.778;9.252;2023-04-03T21:20:06;4.20;90.20
1123;DHT22;548;48.778;9.252;2023-04-03T21:22:33;4.10;90.20
1123;DHT22;548;48.778;9.252;2023-04-03T21:25:08;4.10;90.20
1123;DHT22;548;48.778;9.252;2023-04-03T21:27:34;4.10;90.60
1123;DHT22;548;48.778;9.252;2023-04-03T21:30:01;4.00;90.70
1123;DHT22;548;48.778;9.252;2023-04-03T21:32:30;4.00;90.90
1123;DHT22;548;48.778;9.252;2023-04-03T21:34:56;4.00;91.00
1123;DHT22;548;48.778;9.252;2023-04-03T21:37:24;4.00;91.00
1123;DHT22;548;48.778;9.252;2023-04-03T21:39:51;3.90;91.20
1123;DHT22;548;48.778;9.252;2023-04-03T21:42:18;3.80;91.30
1123;DHT22;548;48.778;9.252;2023-04-03T21:44:44;3.80;91.60
1123;DHT22;548;48.778;9.252;2023-04-03T21:47:14;3.70;91.70
1123;DHT22;548;48.778;9.252;2023-04-03T21:49:41;3.70;91.90
1123;DHT22;548;48.778;9.252;2023-04-03T21:52:08;3.70;92.10
1123;DHT22;548;48.778;9.252;2023-04-03T21:54:36;3.70;92.30
1123;DHT22;548;48.778;9.252;2023-04-03T21:57:03;3.60;92.40
1123;DHT22;548;48.778;9.252;2023-04-03T21:59:30;3.60;92.80
1123;DHT22;548;48.778;9.252;2023-04-03T22:01:56;3.60;92.70
1123;DHT22;548;48.778;9.252;2023-04-03T22:04:23;3.50;93.00
1123;DHT22;548;48.778;9.252;2023-04-03T22:06:51;3.50;93.30
1123;DHT22;548;48.778;9.252;2023-04-03T22:09:17;3.40;93.30
1123;DHT22;548;48.778;9.252;2023-04-03T22:11:45;3.40;93.40
1123;DHT22;548;48.778;9.252;2023-04-03T22:14:14;3.40;93.40
1123;DHT22;548;48.778;9.252;2023-04-03T22:16:41;3.40;93.70
1123;DHT22;548;48.778;9.252;2023-04-03T22:19:10;3.40;93.80
1123;DHT22;548;48.778;9.252;2023-04-03T22:21:38;3.40;93.90
1123;DHT22;548;48.778;9.252;2023-04-03T22:24:05;3.30;94.10
1123;DHT22;548;48.778;9.252;2023-04-03T22:26:32;3.30;94.10
1123;DHT22;548;48.778;9.252;2023-04-03T22:29:01;3.30;94.60
1123;DHT22;548;48.778;9.252;2023-04-03T22:31:28;3.20;94.60
1123;DHT22;548;48.778;9.252;2023-04-03T22:33:55;3.20;94.70
1123;DHT22;548;48.778;9.252;2023-04-03T22:36:21;3.20;95.00
1123;DHT22;548;48.778;9.252;2023-04-03T22:38:48;3.10;95.00
1123;DHT22;548;48.778;9.252;2023-04-03T22:41:15;3.10;95.40
1123;DHT22;548;48.778;9.252;2023-04-03T22:43:42;3.10;95.70
1123;DHT22;548;48.778;9.252;2023-04-03T22:46:10;3.00;96.00
1123;DHT22;548;48.778;9.252;2023-04-03T22:48:40;3.00;96.20
1123;DHT22;548;48.778;9.252;2023-04-03T22:51:07;3.00;96.20
1123;DHT22;548;48.778;9.252;2023-04-03T22:53:34;3.00;96.30
1123;DHT22;548;48.778;9.252;2023-04-03T22:56:02;3.00;96.40
1123;DHT22;548;48.778;9.252;2023-04-03T22:58:32;2.90;96.60
1123;DHT22;548;48.778;9.252;2023-04-03T23:01:04;2.90;96.80
1123;DHT22;548;48.778;9.252;2023-04-03T23:03:32;2.90;96.90
1123;DHT22;548;48.778;9.252;2023-04-03T23:05:59;2.80;97.50
